sensor_id;sensor_type;location;lat;lon;timestamp;temperature;humidity
8105;DHT22;4095;48.942;9.104;2023-07-29T00:01:12;19.80;99.90
8105;DHT22;4095;48.942;9.104;2023-07-29T00:03:37;19.80;99.90
8105;DHT22;4095;48.942;9.104;2023-07-29T00:06:03;19.80;99.90
8105;DHT22;4095;48.942;9.104;2023-07-29T00:08:29;19.80;99.90
8105;DHT22;4095;48.942;9.104;2023-07-29T00:10:54;19.80;99.90
8105;DHT22;4095;48.942;9.104;2023-07-29T00:13:20;19.80;99.90
8105;DHT22;4095;48.942;9.104;2023-07-29T00:15:46;19.80;99.90
8105;DHT22;4095;48.942;9.104;2023-07-29T00:18:11;19.80;99.90
8105;DHT22;4095;48.942;9.104;2023-07-29T00:20:37;19.80;99.90
8105;DHT22;4095;48.942;9.104;2023-07-29T00:23:03;19.80;99.90
8105;DHT22;4095;48.942;9.104;2023-07-29T00:25:28;19.80;99.90
8105;DHT22;4095;48.942;9.104;2023-07-29T00:27:55;19.90;99.90
8105;DHT22;4095;48.942;9.104;2023-07-29T00:30:21;19.90;99.90
8105;DHT22;4095;48.942;9.104;2023-07-29T00:32:47;19.90;99.90
8105;DHT22;4095;48.942;9.104;2023-07-29T00:35:12;19.90;99.90
8105;DHT22;4095;48.942;9.104;2023-07-29T00:37:38;19.90;99.90
8105;DHT22;4095;48.942;9.104;2023-07-29T00:40:12;20.00;99.90
8105;DHT22;4095;48.942;9.104;2023-07-29T00:42:40;20.00;99.90
8105;DHT22;4095;48.942;9.104;2023-07-29T00:45:08;20.00;99.90
8105;DHT22;4095;48.942;9.104;2023-07-29T00:47:34;20.00;99.90
8105;DHT22;4095;48.942;9.104;2023-07-29T00:50:00;20.00;99.90
8105;DHT22;4095;48.942;9.104;2023-07-29T00:52:25;20.00;99.90
8105;DHT22;4095;48.942;9.104;2023-07-29T00:54:51;20.00;99.90
8105;DHT22;4095;48.942;9.104;2023-07-29T00:57:18;20.00;99.90
8105;DHT22;4095;48.942;9.104;2023-07-29T00:59:44;20.00;99.90
8105;DHT22;4095;48.942;9.104;2023-07-29T01:02:10;20.00;99.90
8105;DHT22;4095;48.942;9.104;2023-07-29T01:04:36;20.10;99.90
8105;DHT22;4095;48.942;9.104;2023-07-29T01:17:42;20.00;99.90
8105;DHT22;4095;48.942;9.104;2023-07-29T01:20:09;20.00;99.90
8105;DHT22;4095;48.942;9.104;2023-07-29T01:22:37;20.00;99.90
8105;DHT22;4095;48.942;9.104;2023-07-29T01:25:06;20.00;99.90
8105;DHT22;4095;48.942;9.104;2023-07-29T01:27:32;20.00;99.90
8105;DHT22;4095;48.942;9.104;2023-07-29T01:29:58;20.00;99.90
8105;DHT22;4095;48.942;9.104;2023-07-29T01:33:09;20.00;99.90
8105;DHT22;4095;48.942;9.104;2023-07-29T01:38:01;20.00;99.90
8105;DHT22;4095;48.942;9.104;2023-07-29T01:40:28;20.00;99.90
8105;DHT22;4095;48.942;9.104;2023-07-29T01:42:54;20.00;99.90
8105;DHT22;4095;48.942;9.104;2023-07-29T01:45:23;20.00;99.90
8105;DHT22;4095;48.942;9.104;2023-07-29T01:47:50;20.00;99.90
8105;DHT22;4095;48.942;9.104;2023-07-29T01:50:15;20.00;99.90
8105;DHT22;4095;48.942;9.104;2023-07-29T01:52:41;20.00;99.90
8105;DHT22;4095;48.942;9.104;2023-07-29T01:55:07;20.00;99.90
8105;DHT22;4095;48.942;9.104;2023-07-29T01:57:32;20.00;99.90
8105;DHT22;4095;48.942;9.104;2023-07-29T01:59:58;20.00;99.90
8105;DHT22;4095;48.942;9.104;2023-07-29T02:02:24;20.10;99.90
8105;DHT22;4095;48.942;9.104;2023-07-29T02:04:49;20.10;99.90
8105;DHT22;4095;48.942;9.104;2023-07-29T02:07:20;20.10;99.90
8105;DHT22;4095;48.942;9.104;2023-07-29T02:09:45;20.10;99.90
8105;DHT22;4095;48.942;9.104;2023-07-29T02:12:11;20.00;99.90
8105;DHT22;4095;48.942;9.104;2023-07-29T02:14:36;20.00;99.90
8105;DHT22;4095;48.942;9.104;2023-07-29T02:17:02;20.00;99.90
8105;DHT22;4095;48.942;9.104;2023-07-29T02:19:28;20.00;99.90
8105;DHT22;4095;48.942;9.104;2023-07-29T02:21:53;20.00;99.90
8105;DHT22;4095;48.942;9.104;2023-07-29T02:24:19;20.00;99.90
8105;DHT22;4095;48.942;9.104;2023-07-29T02:26:44;20.00;99.90
8105;DHT22;4095;48.942;9.104;2023-07-29T02:29:10;20.00;99.90
8105;DHT22;4095;48.942;9.104;2023-07-29T02:31:36;20.00;99.90
8105;DHT22;4095;48.942;9.104;2023-07-29T02:34:03;19.90;99.90
8105;DHT22;4095;48.942;9.104;2023-07-29T02:36:28;20.00;99.90
8105;DHT22;4095;48.942;9.104;2023-07-29T02:38:54;20.00;99.90
8105;DHT22;4095;48.942;9.104;2023-07-29T02:41:20;20.00;99.90
8105;DHT22;4095;48.942;9.104;2023-07-29T02:43:48;19.90;99.90
8105;DHT22;4095;48.942;9.104;2023-07-29T02:46:14;19.90;99.90
8105;DHT22;4095;48.942;9.104;2023-07-29T02:48:41;19.90;99.90
8105;DHT22;4095;48.942;9.104;2023-07-29T02:51:07;19.90;99.90
8105;DHT22;4095;48.942;9.104;2023-07-29T02:53:32;19.90;99.90
8105;DHT22;4095;48.942;9.104;2023-07-29T02:55:58;19.90;99.90
8105;DHT22;4095;48.942;9.104;2023-07-29T02:58:24;19.90;99.90
8105;DHT22;4095;48.942;9.104;2023-07-29T03:00:51;19.90;99.90
8105;DHT22;4095;48.942;9.104;2023-07-29T03:03:17;19.90;99.90
8105;DHT22;4095;48.942;9.104;2023-07-29T03:05:44;19.90;99.90
8105;DHT22;4095;48.942;9.104;2023-07-29T03:08:09;19.80;99.90
8105;DHT22;4095;48.942;9.104;2023-07-29T03:10:35;19.80;99.90
8105;DHT22;4095;48.942;9.104;2023-07-29T03:13:01;19.80;99.90
8105;DHT22;4095;48.942;9.104;2023-07-29T03:15:27;19.80;99.90
8105;DHT22;4095;48.942;9.104;2023-07-29T03:17:53;19.80;99.90
8105;DHT22;4095;48.942;9.104;2023-07-29T03:20:19;19.80;99.90
8105;DHT22;4095;48.942;9.104;2023-07-29T03:22:46;19.80;99.90
8105;DHT22;4095;48.942;9.104;2023-07-29T03:25:12;19.80;99.90
8105;DHT22;4095;48.942;9.104;2023-07-29T03:27:37;19.80;99.90
8105;DHT22;4095;48.942;9.104;2023-07-29T03:30:04;19.90;99.90
8105;DHT22;4095;48.942;9.104;2023-07-29T03:32:29;19.90;99.90
8105;DHT22;4095;48.942;9.104;2023-07-29T03:34:55;19.90;99.90
8105;DHT22;4095;48.942;9.104;2023-07-29T03:37:20;19.90;99.90
8105;DHT22;4095;48.942;9.104;2023-07-29T03:39:47;19.90;99.90
8105;DHT22;4095;48.942;9.104;2023-07-29T03:42:12;19.90;99.90
8105;DHT22;4095;48.942;9.104;2023-07-29T03:44:38;19.90;99.90
8105;DHT22;4095;48.942;9.104;2023-07-29T03:47:05;19.90;99.90
8105;DHT22;4095;48.942;9.104;2023-07-29T03:49:31;20.00;99.90
8105;DHT22;4095;48.942;9.104;2023-07-29T03:51:57;20.00;99.90
8105;DHT22;4095;48.942;9.104;2023-07-29T03:54:22;20.00;99.90
8105;DHT22;4095;48.942;9.104;2023-07-29T03:56:48;20.00;99.90
8105;DHT22;4095;48.942;9.104;2023-07-29T03:59:13;20.00;99.90
8105;DHT22;4095;48.942;9.104;2023-07-29T04:01:39;20.00;99.90
8105;DHT22;4095;48.942;9.104;2023-07-29T04:04:05;20.00;99.90
8105;DHT22;4095;48.942;9.104;2023-07-29T04:06:30;20.00;99.90
8105;DHT22;4095;48.942;9.104;2023-07-29T04:08:57;20.00;99.90
8105;DHT22;4095;48.942;9.104;2023-07-29T04:11:23;20.00;99.90
8105;DHT22;4095;48.942;9.104;2023-07-29T04:13:49;20.00;99.90
8105;DHT22;4095;48.942;9.104;2023-07-29T04:16:14;20.00;99.90
8105;DHT22;4095;48.942;9.104;2023-07-29T04:18:41;20.00;99.90
8105;DHT22;4095;48.942;9.104;2023-07-29T04:21:06;20.00;99.90
8105;DHT22;4095;48.942;9.104;2023-07-29T04:23:32;20.10;99.90
8105;DHT22;4095;48.942;9.104;2023-07-29T04:25:57;20.10;99.90
8105;DHT22;4095;48.942;9.104;2023-07-29T04:28:23;20.00;99.90
8105;DHT22;4095;48.942;9.104;2023-07-29T04:30:49;20.00;99.90
8105;DHT22;4095;48.942;9.104;2023-07-29T04:33:14;20.00;99.90
8105;DHT22;4095;48.942;9.104;2023-07-29T04:35:40;20.10;99.90
8105;DHT22;4095;48.942;9.104;2023-07-29T04:38:06;20.10;99.90
8105;DHT22;4095;48.942;9.104;2023-07-29T04:40:33;20.10;99.90
8105;DHT22;4095;48.942;9.104;2023-07-29T04:43:00;20.10;99.90
8105;DHT22;4095;48.942;9.104;2023-07-29T04:45:28;20.00;99.90
8105;DHT22;4095;48.942;9.104;2023-07-29T04:47:55;19.90;99.90
8105;DHT22;4095;48.942;9.104;2023-07-29T04:50:20;19.90;99.90
8105;DHT22;4095;48.942;9.104;2023-07-29T04:52:46;19.90;99.90
8105;DHT22;4095;48.942;9.104;2023-07-29T04:55:12;19.90;99.90
8105;DHT22;4095;48.942;9.104;2023-07-29T04:57:37;19.80;99.90
8105;DHT22;4095;48.942;9.104;2023-07-29T05:00:03;19.90;99.90
8105;DHT22;4095;48.942;9.104;2023-07-29T05:02:29;20.00;99.90
8105;DHT22;4095;48.942;9.104;2023-07-29T05:04:54;20.00;99.90
8105;DHT22;4095;48.942;9.104;2023-07-29T05:07:20;20.00;99.90
8105;DHT22;4095;48.942;9.104;2023-07-29T05:09:46;20.00;99.90
8105;DHT22;4095;48.942;9.104;2023-07-29T05:12:12;20.00;99.90
8105;DHT22;4095;48.942;9.104;2023-07-29T05:14:37;20.10;99.90
8105;DHT22;4095;48.942;9.104;2023-07-29T05:17:03;20.10;99.90
8105;DHT22;4095;48.942;9.104;2023-07-29T05:19:29;20.20;99.90
8105;DHT22;4095;48.942;9.104;2023-07-29T05:21:55;20.20;99.90
8105;DHT22;4095;48.942;9.104;2023-07-29T05:24:21;20.30;99.90
8105;DHT22;4095;48.942;9.104;2023-07-29T05:26:46;20.40;99.90
8105;DHT22;4095;48.942;9.104;2023-07-29T05:29:12;20.40;99.90
8105;DHT22;4095;48.942;9.104;2023-07-29T05:31:37;20.40;99.90
8105;DHT22;4095;48.942;9.104;2023-07-29T05:34:03;20.50;99.90
8105;DHT22;4095;48.942;9.104;2023-07-29T05:36:28;20.50;99.90
8105;DHT22;4095;48.942;9.104;2023-07-29T05:38:54;20.50;99.90
8105;DHT22;4095;48.942;9.104;2023-07-29T05:41:20;20.60;99.90
8105;DHT22;4095;48.942;9.104;2023-07-29T05:43:46;20.60;99.90
8105;DHT22;4095;48.942;9.104;2023-07-29T05:46:12;20.60;99.90
8105;DHT22;4095;48.942;9.104;2023-07-29T05:48:37;20.60;99.90
8105;DHT22;4095;48.942;9.104;2023-07-29T05:51:03;20.70;99.90
8105;DHT22;4095;48.942;9.104;2023-07-29T05:53:31;20.60;99.90
8105;DHT22;4095;48.942;9.104;2023-07-29T05:55:56;20.70;99.90
8105;DHT22;4095;48.942;9.104;2023-07-29T05:58:22;20.70;99.90
8105;DHT22;4095;48.942;9.104;2023-07-29T06:00:47;20.80;99.90
8105;DHT22;4095;48.942;9.104;2023-07-29T06:03:13;20.80;99.90
8105;DHT22;4095;48.942;9.104;2023-07-29T06:05:39;20.90;99.90
8105;DHT22;4095;48.942;9.104;2023-07-29T06:08:05;21.00;99.90
8105;DHT22;4095;48.942;9.104;2023-07-29T06:10:30;21.10;99.90
8105;DHT22;4095;48.942;9.104;2023-07-29T06:12:56;21.10;99.90
8105;DHT22;4095;48.942;9.104;2023-07-29T06:15:21;21.10;99.90
8105;DHT22;4095;48.942;9.104;2023-07-29T06:17:48;21.10;99.90
8105;DHT22;4095;48.942;9.104;2023-07-29T06:20:14;21.20;99.90
8105;DHT22;4095;48.942;9.104;2023-07-29T06:22:40;21.20;99.90
8105;DHT22;4095;48.942;9.104;2023-07-29T06:25:06;21.30;99.90
8105;DHT22;4095;48.942;9.104;2023-07-29T06:27:32;21.30;99.90
8105;DHT22;4095;48.942;9.104;2023-07-29T06:29:57;21.30;99.90
8105;DHT22;4095;48.942;9.104;2023-07-29T06:32:23;21.30;99.90
8105;DHT22;4095;48.942;9.104;2023-07-29T06:34:48;21.30;99.90
8105;DHT22;4095;48.942;9.104;2023-07-29T06:37:14;21.30;99.90
8105;DHT22;4095;48.942;9.104;2023-07-29T06:39:40;21.30;99.90
8105;DHT22;4095;48.942;9.104;2023-07-29T06:42:05;21.20;99.90
8105;DHT22;4095;48.942;9.104;2023-07-29T06:44:31;21.20;99.90
8105;DHT22;4095;48.942;9.104;2023-07-29T06:46:58;21.10;99.90
8105;DHT22;4095;48.942;9.104;2023-07-29T06:49:23;21.10;99.90
8105;DHT22;4095;48.942;9.104;2023-07-29T06:51:49;21.10;99.90
8105;DHT22;4095;48.942;9.104;2023-07-29T06:54:16;21.20;99.90
8105;DHT22;4095;48.942;9.104;2023-07-29T06:56:42;21.10;99.90
8105;DHT22;4095;48.942;9.104;2023-07-29T06:59:08;21.20;99.90
8105;DHT22;4095;48.942;9.104;2023-07-29T07:01:34;21.20;99.90
8105;DHT22;4095;48.942;9.104;2023-07-29T07:03:59;21.20;99.90
8105;DHT22;4095;48.942;9.104;2023-07-29T07:06:25;21.20;99.90
8105;DHT22;4095;48.942;9.104;2023-07-29T07:08:51;21.20;99.90
8105;DHT22;4095;48.942;9.104;2023-07-29T07:11:18;21.30;99.90
8105;DHT22;4095;48.942;9.104;2023-07-29T07:13:43;21.30;99.90
8105;DHT22;4095;48.942;9.104;2023-07-29T07:16:09;21.30;99.90
8105;DHT22;4095;48.942;9.104;2023-07-29T07:18:35;21.30;99.90
8105;DHT22;4095;48.942;9.104;2023-07-29T07:21:00;21.30;99.90
8105;DHT22;4095;48.942;9.104;2023-07-29T07:23:26;21.30;99.90
8105;DHT22;4095;48.942;9.104;2023-07-29T07:25:51;21.30;99.90
8105;DHT22;4095;48.942;9.104;2023-07-29T07:28:17;21.30;99.90
8105;DHT22;4095;48.942;9.104;2023-07-29T07:30:42;21.30;99.90
8105;DHT22;4095;48.942;9.104;2023-07-29T07:33:08;21.30;99.90
8105;DHT22;4095;48.942;9.104;2023-07-29T07:35:34;21.40;99.90
8105;DHT22;4095;48.942;9.104;2023-07-29T07:37:59;21.40;99.90
8105;DHT22;4095;48.942;9.104;2023-07-29T07:40:27;21.40;99.90
8105;DHT22;4095;48.942;9.104;2023-07-29T07:42:53;21.50;99.90
8105;DHT22;4095;48.942;9.104;2023-07-29T07:45:19;21.50;99.90
8105;DHT22;4095;48.942;9.104;2023-07-29T07:47:44;21.50;99.90
8105;DHT22;4095;48.942;9.104;2023-07-29T07:50:10;21.60;99.90
8105;DHT22;4095;48.942;9.104;2023-07-29T07:52:36;21.60;99.90
8105;DHT22;4095;48.942;9.104;2023-07-29T07:55:01;21.70;99.90
8105;DHT22;4095;48.942;9.104;2023-07-29T07:57:27;21.70;99.90
8105;DHT22;4095;48.942;9.104;2023-07-29T07:59:53;21.80;99.90
8105;DHT22;4095;48.942;9.104;2023-07-29T08:02:18;21.90;99.90
8105;DHT22;4095;48.942;9.104;2023-07-29T08:04:44;22.00;99.90
8105;DHT22;4095;48.942;9.104;2023-07-29T08:07:10;22.30;99.90
8105;DHT22;4095;48.942;9.104;2023-07-29T08:09:35;22.40;99.90
8105;DHT22;4095;48.942;9.104;2023-07-29T08:12:01;22.50;99.90
8105;DHT22;4095;48.942;9.104;2023-07-29T08:14:26;22.50;99.90
8105;DHT22;4095;48.942;9.104;2023-07-29T08:16:52;22.70;99.90
8105;DHT22;4095;48.942;9.104;2023-07-29T08:19:18;22.90;99.90
8105;DHT22;4095;48.942;9.104;2023-07-29T08:21:43;23.00;99.90
8105;DHT22;4095;48.942;9.104;2023-07-29T08:24:09;23.00;99.90
8105;DHT22;4095;48.942;9.104;2023-07-29T08:26:35;22.90;99.90
8105;DHT22;4095;48.942;9.104;2023-07-29T08:29:00;22.80;99.90
8105;DHT22;4095;48.942;9.104;2023-07-29T08:31:26;22.70;99.90
8105;DHT22;4095;48.942;9.104;2023-07-29T08:33:52;22.60;99.90
8105;DHT22;4095;48.942;9.104;2023-07-29T08:36:17;22.60;99.90
8105;DHT22;4095;48.942;9.104;2023-07-29T08:38:43;22.50;99.90
8105;DHT22;4095;48.942;9.104;2023-07-29T08:41:29;22.60;99.90
8105;DHT22;4095;48.942;9.104;2023-07-29T08:44:04;22.60;99.90
8105;DHT22;4095;48.942;9.104;2023-07-29T08:46:32;22.80;99.90
8105;DHT22;4095;48.942;9.104;2023-07-29T08:48:59;22.90;99.90
8105;DHT22;4095;48.942;9.104;2023-07-29T08:51:26;23.00;99.90
8105;DHT22;4095;48.942;9.104;2023-07-29T08:53:52;23.20;99.90
8105;DHT22;4095;48.942;9.104;2023-07-29T08:56:18;23.50;99.90
8105;DHT22;4095;48.942;9.104;2023-07-29T08:58:44;23.60;99.90
8105;DHT22;4095;48.942;9.104;2023-07-29T09:01:10;23.70;99.90
8105;DHT22;4095;48.942;9.104;2023-07-29T09:03:37;23.80;99.90
8105;DHT22;4095;48.942;9.104;2023-07-29T09:06:03;24.00;99.90
8105;DHT22;4095;48.942;9.104;2023-07-29T09:08:29;24.10;99.90
8105;DHT22;4095;48.942;9.104;2023-07-29T09:10:55;24.10;99.90
8105;DHT22;4095;48.942;9.104;2023-07-29T09:13:21;24.10;99.90
8105;DHT22;4095;48.942;9.104;2023-07-29T09:15:47;24.20;99.90
8105;DHT22;4095;48.942;9.104;2023-07-29T09:18:18;24.30;99.90
8105;DHT22;4095;48.942;9.104;2023-07-29T09:20:47;24.40;99.90
8105;DHT22;4095;48.942;9.104;2023-07-29T09:23:13;24.30;99.90
8105;DHT22;4095;48.942;9.104;2023-07-29T09:25:39;24.30;99.90
8105;DHT22;4095;48.942;9.104;2023-07-29T09:28:10;24.30;99.90
8105;DHT22;4095;48.942;9.104;2023-07-29T09:30:37;24.50;99.90
8105;DHT22;4095;48.942;9.104;2023-07-29T09:33:03;24.50;99.90
8105;DHT22;4095;48.942;9.104;2023-07-29T09:35:30;24.70;99.90
8105;DHT22;4095;48.942;9.104;2023-07-29T09:37:57;24.60;99.90
8105;DHT22;4095;48.942;9.104;2023-07-29T09:40:23;24.60;99.90
8105;DHT22;4095;48.942;9.104;2023-07-29T09:42:52;24.50;99.90
8105;DHT22;4095;48.942;9.104;2023-07-29T09:45:23;24.30;99.90
8105;DHT22;4095;48.942;9.104;2023-07-29T09:47:49;24.10;99.90
8105;DHT22;4095;48.942;9.104;2023-07-29T09:50:15;23.90;99.90
8105;DHT22;4095;48.942;9.104;2023-07-29T09:52:42;23.70;99.90
8105;DHT22;4095;48.942;9.104;2023-07-29T09:55:12;23.50;99.90
8105;DHT22;4095;48.942;9.104;2023-07-29T09:57:40;23.30;99.90
8105;DHT22;4095;48.942;9.104;2023-07-29T10:00:06;23.10;99.90
8105;DHT22;4095;48.942;9.104;2023-07-29T10:02:40;22.90;99.90
8105;DHT22;4095;48.942;9.104;2023-07-29T10:05:07;22.90;99.90
8105;DHT22;4095;48.942;9.104;2023-07-29T10:07:36;22.70;99.90
8105;DHT22;4095;48.942;9.104;2023-07-29T10:10:04;22.70;99.90
8105;DHT22;4095;48.942;9.104;2023-07-29T10:12:34;22.60;99.90
8105;DHT22;4095;48.942;9.104;2023-07-29T10:15:04;22.70;99.90
8105;DHT22;4095;48.942;9.104;2023-07-29T10:17:34;22.80;99.90
8105;DHT22;4095;48.942;9.104;2023-07-29T10:20:00;22.80;99.90
8105;DHT22;4095;48.942;9.104;2023-07-29T10:22:38;22.80;99.90
8105;DHT22;4095;48.942;9.104;2023-07-29T10:25:09;22.80;99.90
8105;DHT22;4095;48.942;9.104;2023-07-29T10:27:56;22.80;99.90
8105;DHT22;4095;48.942;9.104;2023-07-29T10:30:21;22.90;99.90
8105;DHT22;4095;48.942;9.104;2023-07-29T10:32:49;23.00;99.90
8105;DHT22;4095;48.942;9.104;2023-07-29T10:35:17;23.10;99.90
8105;DHT22;4095;48.942;9.104;2023-07-29T10:37:43;23.00;99.90
8105;DHT22;4095;48.942;9.104;2023-07-29T10:40:10;23.20;99.90
8105;DHT22;4095;48.942;9.104;2023-07-29T10:42:37;23.40;99.90
8105;DHT22;4095;48.942;9.104;2023-07-29T10:45:39;23.50;99.90
8105;DHT22;4095;48.942;9.104;2023-07-29T10:48:12;23.70;99.90
8105;DHT22;4095;48.942;9.104;2023-07-29T10:50:38;24.00;99.90
8105;DHT22;4095;48.942;9.104;2023-07-29T10:53:04;24.10;99.90
8105;DHT22;4095;48.942;9.104;2023-07-29T10:55:32;24.30;99.90
8105;DHT22;4095;48.942;9.104;2023-07-29T10:58:11;24.50;99.90
8105;DHT22;4095;48.942;9.104;2023-07-29T11:00:38;24.60;99.90
8105;DHT22;4095;48.942;9.104;2023-07-29T11:03:08;24.70;99.90
8105;DHT22;4095;48.942;9.104;2023-07-29T11:05:51;25.10;99.90
8105;DHT22;4095;48.942;9.104;2023-07-29T11:08:28;25.30;99.90
8105;DHT22;4095;48.942;9.104;2023-07-29T11:13:31;25.60;99.90
8105;DHT22;4095;48.942;9.104;2023-07-29T11:15:58;25.80;99.90
8105;DHT22;4095;48.942;9.104;2023-07-29T11:18:32;25.80;99.90
8105;DHT22;4095;48.942;9.104;2023-07-29T11:20:59;25.80;99.90
8105;DHT22;4095;48.942;9.104;2023-07-29T11:23:30;25.80;99.90
8105;DHT22;4095;48.942;9.104;2023-07-29T11:25:57;25.80;99.90
8105;DHT22;4095;48.942;9.104;2023-07-29T11:28:23;25.80;99.90
8105;DHT22;4095;48.942;9.104;2023-07-29T11:30:50;26.00;99.90
8105;DHT22;4095;48.942;9.104;2023-07-29T11:33:20;26.10;99.90
8105;DHT22;4095;48.942;9.104;2023-07-29T11:35:46;26.10;99.90
8105;DHT22;4095;48.942;9.104;2023-07-29T11:38:19;25.90;99.90
8105;DHT22;4095;48.942;9.104;2023-07-29T11:40:56;25.80;99.90
8105;DHT22;4095;48.942;9.104;2023-07-29T11:43:21;25.70;99.90
8105;DHT22;4095;48.942;9.104;2023-07-29T11:45:47;25.70;99.90
8105;DHT22;4095;48.942;9.104;2023-07-29T11:48:13;25.80;99.90
8105;DHT22;4095;48.942;9.104;2023-07-29T11:50:38;26.10;99.90
8105;DHT22;4095;48.942;9.104;2023-07-29T11:53:05;26.30;99.90
8105;DHT22;4095;48.942;9.104;2023-07-29T11:55:30;26.40;99.90
8105;DHT22;4095;48.942;9.104;2023-07-29T11:57:56;26.60;99.90
8105;DHT22;4095;48.942;9.104;2023-07-29T12:00:22;26.60;99.90
8105;DHT22;4095;48.942;9.104;2023-07-29T12:02:49;26.60;99.90
8105;DHT22;4095;48.942;9.104;2023-07-29T12:05:15;26.70;99.90
8105;DHT22;4095;48.942;9.104;2023-07-29T12:07:43;26.80;99.90
8105;DHT22;4095;48.942;9.104;2023-07-29T12:10:10;27.00;99.90
8105;DHT22;4095;48.942;9.104;2023-07-29T12:12:45;26.90;99.90
8105;DHT22;4095;48.942;9.104;2023-07-29T12:15:11;26.90;99.90
8105;DHT22;4095;48.942;9.104;2023-07-29T12:17:43;26.80;99.90
8105;DHT22;4095;48.942;9.104;2023-07-29T12:20:12;26.80;99.90
8105;DHT22;4095;48.942;9.104;2023-07-29T12:22:37;26.80;99.90
8105;DHT22;4095;48.942;9.104;2023-07-29T12:25:03;26.80;99.90
8105;DHT22;4095;48.942;9.104;2023-07-29T12:27:30;26.80;99.90
8105;DHT22;4095;48.942;9.104;2023-07-29T12:29:56;26.90;99.90
8105;DHT22;4095;48.942;9.104;2023-07-29T12:32:25;27.00;99.90
8105;DHT22;4095;48.942;9.104;2023-07-29T12:34:53;27.00;99.90
8105;DHT22;4095;48.942;9.104;2023-07-29T12:37:19;27.10;99.90
8105;DHT22;4095;48.942;9.104;2023-07-29T12:39:45;27.20;99.90
8105;DHT22;4095;48.942;9.104;2023-07-29T12:42:10;27.10;99.90
8105;DHT22;4095;48.942;9.104;2023-07-29T12:44:38;27.00;99.90
8105;DHT22;4095;48.942;9.104;2023-07-29T12:47:05;26.90;99.90
8105;DHT22;4095;48.942;9.104;2023-07-29T12:49:31;26.80;99.90
8105;DHT22;4095;48.942;9.104;2023-07-29T12:51:57;26.60;99.90
8105;DHT22;4095;48.942;9.104;2023-07-29T12:54:23;26.50;99.90
8105;DHT22;4095;48.942;9.104;2023-07-29T12:56:49;26.30;99.90
8105;DHT22;4095;48.942;9.104;2023-07-29T12:59:16;26.30;99.90
8105;DHT22;4095;48.942;9.104;2023-07-29T13:01:42;26.20;99.90
8105;DHT22;4095;48.942;9.104;2023-07-29T13:04:08;26.10;99.90
8105;DHT22;4095;48.942;9.104;2023-07-29T13:06:34;26.10;99.90
8105;DHT22;4095;48.942;9.104;2023-07-29T13:08:59;26.20;99.90
8105;DHT22;4095;48.942;9.104;2023-07-29T13:11:25;26.30;99.90
8105;DHT22;4095;48.942;9.104;2023-07-29T13:13:51;26.40;99.90
8105;DHT22;4095;48.942;9.104;2023-07-29T13:16:17;26.30;99.90
8105;DHT22;4095;48.942;9.104;2023-07-29T13:18:43;26.30;99.90
8105;DHT22;4095;48.942;9.104;2023-07-29T13:21:09;26.20;99.90
8105;DHT22;4095;48.942;9.104;2023-07-29T13:23:35;26.20;99.90
8105;DHT22;4095;48.942;9.104;2023-07-29T13:26:00;26.10;99.90
8105;DHT22;4095;48.942;9.104;2023-07-29T13:28:26;26.10;99.90
8105;DHT22;4095;48.942;9.104;2023-07-29T13:30:55;26.10;99.90
8105;DHT22;4095;48.942;9.104;2023-07-29T13:33:20;26.10;99.90
8105;DHT22;4095;48.942;9.104;2023-07-29T13:35:46;26.00;99.90
8105;DHT22;4095;48.942;9.104;2023-07-29T13:38:12;26.00;99.90
8105;DHT22;4095;48.942;9.104;2023-07-29T13:40:37;26.10;99.90
8105;DHT22;4095;48.942;9.104;2023-07-29T13:43:03;26.10;99.90
8105;DHT22;4095;48.942;9.104;2023-07-29T13:45:29;26.00;99.90
8105;DHT22;4095;48.942;9.104;2023-07-29T13:47:54;26.00;99.90
8105;DHT22;4095;48.942;9.104;2023-07-29T13:50:20;25.90;99.90
8105;DHT22;4095;48.942;9.104;2023-07-29T13:52:45;25.90;99.90
8105;DHT22;4095;48.942;9.104;2023-07-29T13:55:11;26.00;99.90
8105;DHT22;4095;48.942;9.104;2023-07-29T13:57:37;26.00;99.90
8105;DHT22;4095;48.942;9.104;2023-07-29T14:00:05;26.00;99.90
8105;DHT22;4095;48.942;9.104;2023-07-29T14:02:31;26.00;99.90
8105;DHT22;4095;48.942;9.104;2023-07-29T14:04:57;26.00;99.90
8105;DHT22;4095;48.942;9.104;2023-07-29T14:07:22;26.00;99.90
8105;DHT22;4095;48.942;9.104;2023-07-29T14:09:48;26.10;99.90
8105;DHT22;4095;48.942;9.104;2023-07-29T14:12:13;26.10;99.90
8105;DHT22;4095;48.942;9.104;2023-07-29T14:14:41;26.10;99.90
8105;DHT22;4095;48.942;9.104;2023-07-29T14:17:07;26.00;99.90
8105;DHT22;4095;48.942;9.104;2023-07-29T14:19:37;26.00;99.90
8105;DHT22;4095;48.942;9.104;2023-07-29T14:22:02;26.00;99.90
8105;DHT22;4095;48.942;9.104;2023-07-29T14:24:28;26.00;99.90
8105;DHT22;4095;48.942;9.104;2023-07-29T14:26:54;26.00;99.90
8105;DHT22;4095;48.942;9.104;2023-07-29T14:29:19;26.00;99.90
8105;DHT22;4095;48.942;9.104;2023-07-29T14:31:45;26.00;99.90
8105;DHT22;4095;48.942;9.104;2023-07-29T14:34:10;25.90;99.90
8105;DHT22;4095;48.942;9.104;2023-07-29T14:36:36;26.00;99.90
8105;DHT22;4095;48.942;9.104;2023-07-29T14:39:02;26.00;99.90
8105;DHT22;4095;48.942;9.104;2023-07-29T14:41:28;26.00;99.90
8105;DHT22;4095;48.942;9.104;2023-07-29T14:43:53;26.00;99.90
8105;DHT22;4095;48.942;9.104;2023-07-29T14:46:19;26.10;99.90
8105;DHT22;4095;48.942;9.104;2023-07-29T14:48:44;26.10;99.90
8105;DHT22;4095;48.942;9.104;2023-07-29T14:51:12;26.10;99.90
8105;DHT22;4095;48.942;9.104;2023-07-29T14:53:38;26.20;99.90
8105;DHT22;4095;48.942;9.104;2023-07-29T14:56:03;26.10;99.90
8105;DHT22;4095;48.942;9.104;2023-07-29T14:58:29;26.20;99.90
8105;DHT22;4095;48.942;9.104;2023-07-29T15:00:55;26.20;99.90
8105;DHT22;4095;48.942;9.104;2023-07-29T15:03:21;26.20;99.90
8105;DHT22;4095;48.942;9.104;2023-07-29T15:05:47;26.30;99.90
8105;DHT22;4095;48.942;9.104;2023-07-29T15:08:12;26.30;99.90
8105;DHT22;4095;48.942;9.104;2023-07-29T15:10:38;26.30;99.90
8105;DHT22;4095;48.942;9.104;2023-07-29T15:13:03;26.30;99.90
8105;DHT22;4095;48.942;9.104;2023-07-29T15:15:30;26.40;99.90
8105;DHT22;4095;48.942;9.104;2023-07-29T15:17:55;26.40;99.90
8105;DHT22;4095;48.942;9.104;2023-07-29T15:20:22;26.40;99.90
8105;DHT22;4095;48.942;9.104;2023-07-29T15:22:48;26.40;99.90
8105;DHT22;4095;48.942;9.104;2023-07-29T15:25:13;26.40;99.90
8105;DHT22;4095;48.942;9.104;2023-07-29T15:27:39;26.40;99.90
8105;DHT22;4095;48.942;9.104;2023-07-29T15:30:06;26.40;99.90
8105;DHT22;4095;48.942;9.104;2023-07-29T15:32:32;26.30;99.90
8105;DHT22;4095;48.942;9.104;2023-07-29T15:34:58;26.30;99.90
8105;DHT22;4095;48.942;9.104;2023-07-29T15:37:25;26.40;99.90
8105;DHT22;4095;48.942;9.104;2023-07-29T15:39:51;26.30;99.90
8105;DHT22;4095;48.942;9.104;2023-07-29T15:42:17;26.30;99.90
8105;DHT22;4095;48.942;9.104;2023-07-29T15:44:43;26.30;99.90
8105;DHT22;4095;48.942;9.104;2023-07-29T15:47:08;26.30;99.90
8105;DHT22;4095;48.942;9.104;2023-07-29T15:49:34;26.30;99.90
8105;DHT22;4095;48.942;9.104;2023-07-29T15:52:00;26.30;99.90
8105;DHT22;4095;48.942;9.104;2023-07-29T15:54:26;26.30;99.90
8105;DHT22;4095;48.942;9.104;2023-07-29T15:56:51;26.40;99.90
8105;DHT22;4095;48.942;9.104;2023-07-29T15:59:17;26.30;99.90
8105;DHT22;4095;48.942;9.104;2023-07-29T16:01:42;26.40;99.90
8105;DHT22;4095;48.942;9.104;2023-07-29T16:04:08;26.40;99.90
8105;DHT22;4095;48.942;9.104;2023-07-29T16:06:34;26.40;99.90
8105;DHT22;4095;48.942;9.104;2023-07-29T16:09:01;26.50;99.90
8105;DHT22;4095;48.942;9.104;2023-07-29T16:11:31;26.50;99.90
8105;DHT22;4095;48.942;9.104;2023-07-29T16:13:57;26.40;99.90